Time;durP1;ratioP1;P1;durP2;ratioP2;P2;SDS_P1;SDS_P2;PMS_P1;PMS_P2;Temp;Humidity;BMP_temperature;BMP_pressure;BME280_temperature;BME280_humidity;BME280_pressure;Samples;Min_cycle;Max_cycle;Signal;HPM_P1;HPM_P2
2021/09/24 00:00:07;;;;;;;4.00;3.42;;;;;;;5.72;100.00;93440.53;2596065;22;19999;-78
2021/09/24 00:01:08;;;;;;;5.07;3.60;;;;;;;5.62;100.00;93435.97;2595953;22;20028;-79
2021/09/24 00:02:10;;;;;;;5.40;3.33;;;;;;;5.57;100.00;93436.31;2596028;22;20021;-81
2021/09/24 00:03:11;;;;;;;3.47;3.17;;;;;;;5.53;100.00;93436.34;2596619;22;20653;-79
2021/09/24 00:04:12;;;;;;;3.75;3.20;;;;;;;5.54;100.00;93448.44;2596598;22;20101;-76
2021/09/24 00:05:13;;;;;;;3.70;3.22;;;;;;;5.58;100.00;93442.41;2596773;22;20007;-78
2021/09/24 00:06:14;;;;;;;3.72;3.42;;;;;;;5.55;100.00;93438.59;2596582;22;20000;-74
2021/09/24 00:07:15;;;;;;;4.25;3.47;;;;;;;5.54;100.00;93443.16;2583587;22;20004;-80
2021/09/24 00:08:16;;;;;;;7.47;3.13;;;;;;;5.49;100.00;93435.56;2595731;22;20050;-78
2021/09/24 00:09:17;;;;;;;6.43;3.10;;;;;;;5.51;100.00;93435.94;2595734;22;20007;-79
2021/09/24 00:10:19;;;;;;;6.22;3.33;;;;;;;5.44;100.00;93435.91;2596027;22;20027;-79
2021/09/24 00:11:20;;;;;;;5.30;3.00;;;;;;;5.42;100.00;93432.88;2583442;22;20007;-78
2021/09/24 00:12:22;;;;;;;3.40;3.10;;;;;;;5.51;100.00;93427.22;2595668;22;20015;-81
2021/09/24 00:13:23;;;;;;;5.95;3.00;;;;;;;5.46;100.00;93432.91;2596513;22;20004;-78
2021/09/24 00:14:24;;;;;;;3.42;3.13;;;;;;;5.42;100.00;93422.28;2595595;22;20004;-77
2021/09/24 00:15:25;;;;;;;3.50;3.20;;;;;;;5.48;100.00;93417.38;2596099;22;20058;-78
2021/09/24 00:16:27;;;;;;;4.10;3.42;;;;;;;5.37;100.00;93420.00;2595744;22;19999;-77
2021/09/24 00:17:28;;;;;;;4.78;3.40;;;;;;;5.47;100.00;93416.63;2583518;22;20023;-78
2021/09/24 00:18:29;;;;;;;5.05;3.42;;;;;;;5.57;100.00;93415.09;2595242;22;20078;-76
2021/09/24 00:19:30;;;;;;;3.83;3.53;;;;;;;5.54;100.00;93419.28;2582949;23;20004;-76
2021/09/24 00:20:31;;;;;;;3.40;3.10;;;;;;;5.49;100.00;93414.34;2570626;22;20023;-78
2021/09/24 00:21:32;;;;;;;5.13;3.17;;;;;;;5.63;100.00;93420.81;2596014;22;19996;-75
2021/09/24 00:22:33;;;;;;;5.43;3.60;;;;;;;5.57;100.00;93423.06;2595953;22;19987;-76
2021/09/24 00:23:34;;;;;;;4.75;3.63;;;;;;;5.56;100.00;93419.66;2596043;22;19996;-81
2021/09/24 00:24:35;;;;;;;3.92;3.13;;;;;;;5.55;100.00;93415.50;2583005;23;19996;-76
2021/09/24 00:25:37;;;;;;;4.78;3.10;;;;;;;5.48;100.00;93418.13;2583207;22;20000;-76
2021/09/24 00:26:39;;;;;;;3.92;3.53;;;;;;;5.53;100.00;93417.78;2596545;22;20007;-78
2021/09/24 00:27:40;;;;;;;5.82;3.53;;;;;;;5.55;100.00;93426.09;2595514;22;20007;-78
2021/09/24 00:28:41;;;;;;;6.05;3.65;;;;;;;5.63;100.00;93423.47;2583275;22;20015;-77
2021/09/24 00:29:42;;;;;;;4.13;3.72;;;;;;;5.72;100.00;93426.53;2582975;22;20443;-79
2021/09/24 00:30:43;;;;;;;4.35;3.83;;;;;;;5.68;100.00;93431.06;2582752;22;20000;-76
2021/09/24 00:31:44;;;;;;;4.47;3.38;;;;;;;5.74;100.00;93429.53;2595696;22;20088;-77
2021/09/24 00:32:45;;;;;;;4.13;3.72;;;;;;;5.74;100.00;93430.28;2582858;23;20086;-81
2021/09/24 00:33:46;;;;;;;4.10;3.70;;;;;;;5.71;100.00;93435.63;2583273;22;20435;-79
2021/09/24 00:34:47;;;;;;;5.13;3.40;;;;;;;5.74;100.00;93426.88;2595688;22;20042;-79
2021/09/24 00:35:48;;;;;;;4.10;3.55;;;;;;;5.67;100.00;93424.25;2583351;22;20011;-78
2021/09/24 00:36:48;;;;;;;6.10;3.85;;;;;;;5.80;100.00;93417.44;2595606;22;19996;-77
2021/09/24 00:37:49;;;;;;;4.38;3.30;;;;;;;5.62;100.00;93421.94;2595840;22;20000;-79
2021/09/24 00:38:50;;;;;;;3.78;3.42;;;;;;;5.50;100.00;93410.56;2595874;22;19999;-78
2021/09/24 00:39:51;;;;;;;3.97;3.58;;;;;;;5.62;100.00;93412.13;2595630;22;20023;-78
2021/09/24 00:40:52;;;;;;;3.67;3.25;;;;;;;5.52;100.00;93412.84;2595735;22;20006;-81
2021/09/24 00:41:53;;;;;;;4.18;3.78;;;;;;;5.48;100.00;93412.81;2596683;22;20044;-78
2021/09/24 00:42:54;;;;;;;3.97;3.33;;;;;;;5.51;100.00;93411.31;2596404;22;20052;-81
2021/09/24 00:43:55;;;;;;;3.85;3.45;;;;;;;5.55;100.00;93407.53;2596376;22;20000;-77
2021/09/24 00:44:56;;;;;;;3.30;3.00;;;;;;;5.46;100.00;93404.50;2596410;22;20006;-76
2021/09/24 00:45:57;;;;;;;3.75;3.35;;;;;;;5.44;100.00;93409.41;2596441;22;20419;-78
2021/09/24 00:46:59;;;;;;;4.20;3.28;;;;;;;5.32;100.00;93414.31;2596550;22;20008;-78
2021/09/24 00:48:00;;;;;;;3.83;3.53;;;;;;;5.29;100.00;93407.84;2595752;22;19999;-77
2021/09/24 00:49:01;;;;;;;3.92;3.50;;;;;;;5.29;100.00;93410.50;2595227;22;20075;-80
2021/09/24 00:50:04;;;;;;;4.07;3.63;;;;;;;5.23;100.00;93398.75;2595377;22;20046;-81
2021/09/24 00:51:04;;;;;;;4.38;3.25;;;;;;;5.31;100.00;93397.63;2583295;22;20455;-79
2021/09/24 00:52:06;;;;;;;4.50;3.22;;;;;;;5.28;100.00;93393.09;2582869;23;20000;-79
2021/09/24 00:53:10;;;;;;;3.50;3.08;;;;;;;5.31;100.00;93392.31;2583083;22;20004;-77
2021/09/24 00:54:11;;;;;;;3.63;3.28;;;;;;;5.19;100.00;93396.09;2595857;22;20070;-78
2021/09/24 00:55:12;;;;;;;4.43;3.30;;;;;;;5.08;100.00;93389.25;2595851;22;20000;-83
2021/09/24 00:56:13;;;;;;;4.00;3.35;;;;;;;5.08;100.00;93389.25;2582868;22;20004;-77
2021/09/24 00:57:14;;;;;;;3.75;3.40;;;;;;;5.08;100.00;93384.69;2583109;22;20157;-78
2021/09/24 00:58:15;;;;;;;5.15;3.53;;;;;;;5.10;100.00;93384.34;2583068;22;20004;-76
2021/09/24 00:59:16;;;;;;;3.60;3.30;;;;;;;5.12;100.00;93384.72;2595760;22;20335;-76
2021/09/24 01:00:17;;;;;;;4.63;3.30;;;;;;;5.09;100.00;93382.81;2595497;22;20039;-78
2021/09/24 01:01:18;;;;;;;3.17;2.88;;;;;;;5.15;100.00;93382.06;2595803;22;20004;-78
2021/09/24 01:02:19;;;;;;;4.35;3.17;;;;;;;5.23;100.00;93377.56;2595681;22;20324;-78
2021/09/24 01:03:20;;;;;;;3.78;3.47;;;;;;;5.17;100.00;93376.41;2595650;22;20071;-76
2021/09/24 01:04:21;;;;;;;5.03;3.60;;;;;;;5.02;100.00;93388.84;2596589;22;20031;-78
2021/09/24 01:05:22;;;;;;;3.75;3.45;;;;;;;5.09;100.00;93375.59;2596468;22;20006;-77
2021/09/24 01:06:23;;;;;;;4.97;3.67;;;;;;;5.12;100.00;93379.41;2596492;22;20034;-76
2021/09/24 01:07:24;;;;;;;4.03;2.90;;;;;;;5.04;100.00;93378.63;2596479;22;20038;-78
2021/09/24 01:08:26;;;;;;;3.60;3.22;;;;;;;5.09;100.00;93382.81;2595497;22;20004;-77
2021/09/24 01:09:27;;;;;;;6.40;3.05;;;;;;;4.84;100.00;93390.69;2595653;22;20468;-81
2021/09/24 01:10:28;;;;;;;7.63;3.40;;;;;;;4.88;100.00;93391.44;2595694;22;20386;-78
2021/09/24 01:11:29;;;;;;;3.28;2.97;;;;;;;5.03;100.00;93387.72;2583255;22;20031;-79
2021/09/24 01:12:31;;;;;;;4.78;3.20;;;;;;;5.04;100.00;93382.03;2595352;22;20007;-79
2021/09/24 01:13:31;;;;;;;5.22;3.58;;;;;;;4.99;100.00;93390.34;2596331;22;20003;-77
2021/09/24 01:14:32;;;;;;;3.78;3.33;;;;;;;5.16;100.00;93385.47;2596500;22;20014;-76
2021/09/24 01:15:33;;;;;;;4.57;3.13;;;;;;;4.95;100.00;93381.63;2595660;22;20493;-80
2021/09/24 01:16:34;;;;;;;3.05;2.72;;;;;;;4.98;100.00;93377.47;2595682;22;19999;-77
2021/09/24 01:17:35;;;;;;;4.43;3.45;;;;;;;5.00;100.00;93383.94;2595460;22;20003;-79
2021/09/24 01:18:36;;;;;;;3.70;2.97;;;;;;;4.90;100.00;93381.22;2582602;22;20098;-76
2021/09/24 01:19:37;;;;;;;4.68;3.75;;;;;;;5.00;100.00;93383.94;2595668;22;20327;-78
2021/09/24 01:20:38;;;;;;;4.10;3.70;;;;;;;5.09;100.00;93382.81;2594977;22;20006;-78
2021/09/24 01:21:42;;;;;;;5.53;4.30;;;;;;;5.10;100.00;93384.34;2582871;23;20070;-78
2021/09/24 01:22:44;;;;;;;4.93;3.78;;;;;;;5.12;100.00;93393.41;2571372;22;20007;-77
2021/09/24 01:23:45;;;;;;;4.70;4.05;;;;;;;5.07;100.00;93387.72;2595858;22;20093;-78
2021/09/24 01:24:46;;;;;;;4.45;3.97;;;;;;;5.17;100.00;93394.94;2596363;22;20003;-76
2021/09/24 01:25:47;;;;;;;4.55;3.90;;;;;;;5.11;100.00;93386.59;2595693;22;20000;-78
2021/09/24 01:26:50;;;;;;;4.10;3.70;;;;;;;5.15;100.00;93389.28;2595924;22;20000;-78
2021/09/24 01:27:52;;;;;;;6.03;4.18;;;;;;;5.09;100.00;93390.75;2595643;22;20003;-76
2021/09/24 01:28:56;;;;;;;5.22;3.85;;;;;;;5.15;100.00;93389.28;2595706;22;20125;-78
2021/09/24 01:29:57;;;;;;;5.18;3.92;;;;;;;5.11;100.00;93388.50;2596390;22;20004;-78
2021/09/24 01:30:58;;;;;;;4.38;3.97;;;;;;;5.04;100.00;93379.38;2596227;22;20071;-78
2021/09/24 01:32:00;;;;;;;6.28;4.47;;;;;;;5.09;100.00;93377.50;2595268;22;20006;-79
2021/09/24 01:33:00;;;;;;;4.47;4.07;;;;;;;5.11;100.00;93383.97;2595487;22;20046;-79
2021/09/24 01:34:01;;;;;;;5.28;4.28;;;;;;;5.13;100.00;93378.28;2596253;22;20000;-77
2021/09/24 01:35:05;;;;;;;4.40;4.00;;;;;;;5.15;100.00;93378.69;2596229;22;20004;-76
2021/09/24 01:36:06;;;;;;;4.97;4.50;;;;;;;5.22;100.00;93374.16;2595382;22;20027;-77
2021/09/24 01:37:07;;;;;;;5.35;4.60;;;;;;;5.20;100.00;93380.97;2595680;22;20003;-79
2021/09/24 01:38:09;;;;;;;7.35;4.35;;;;;;;5.24;100.00;93373.78;2596318;22;20438;-78
2021/09/24 01:39:10;;;;;;;4.93;3.90;;;;;;;5.31;100.00;93384.38;2595328;22;20004;-79
2021/09/24 01:40:14;;;;;;;5.82;4.75;;;;;;;5.34;100.00;93377.59;2595352;22;20003;-79
2021/09/24 01:41:15;;;;;;;5.57;5.00;;;;;;;5.36;100.00;93376.09;2595465;22;20004;-77
2021/09/24 01:42:16;;;;;;;5.90;4.82;;;;;;;5.32;100.00;93380.63;2583021;22;19996;-77
2021/09/24 01:43:17;;;;;;;4.85;4.32;;;;;;;5.34;100.00;93378.34;2595329;22;20034;-77
2021/09/24 01:44:18;;;;;;;5.38;4.50;;;;;;;5.37;100.00;93382.91;2595992;22;20003;-77
2021/09/24 01:45:20;;;;;;;7.43;5.07;;;;;;;5.28;100.00;93380.59;2595290;22;20431;-78
2021/09/24 01:46:21;;;;;;;5.22;4.72;;;;;;;5.31;100.00;93379.06;2582895;22;20019;-79
2021/09/24 01:47:22;;;;;;;5.03;4.50;;;;;;;5.29;100.00;93378.72;2595307;22;20008;-76
2021/09/24 01:48:23;;;;;;;8.35;4.30;;;;;;;5.32;100.00;93377.22;2582638;22;20070;-79
2021/09/24 01:49:23;;;;;;;5.28;4.78;;;;;;;5.35;100.00;93379.09;2595423;22;20071;-79
2021/09/24 01:50:24;;;;;;;7.70;4.70;;;;;;;5.29;100.00;93378.72;2595767;22;20069;-76
2021/09/24 01:51:25;;;;;;;4.85;4.22;;;;;;;5.30;100.00;93369.63;2582712;23;20082;-81
2021/09/24 01:52:28;;;;;;;5.57;4.30;;;;;;;5.39;100.00;93372.66;2582577;22;20000;-78
2021/09/24 01:53:29;;;;;;;7.10;4.75;;;;;;;5.34;100.00;93373.03;2596270;22;20000;-80
2021/09/24 01:54:30;;;;;;;4.85;4.38;;;;;;;5.41;100.00;93373.06;2595134;22;20378;-80
2021/09/24 01:55:31;;;;;;;5.97;4.57;;;;;;;5.38;100.00;93373.81;2595334;22;20012;-77
2021/09/24 01:56:32;;;;;;;9.20;4.90;;;;;;;5.37;100.00;93377.59;2582555;23;20007;-75
2021/09/24 01:57:33;;;;;;;7.60;4.50;;;;;;;5.36;100.00;93368.13;2595473;22;19999;-76
2021/09/24 01:58:34;;;;;;;6.60;4.93;;;;;;;5.34;100.00;93378.34;2595511;22;20006;-79
2021/09/24 01:59:35;;;;;;;5.55;4.72;;;;;;;5.36;100.00;93370.78;2596127;22;20006;-78
2021/09/24 02:00:36;;;;;;;6.28;4.95;;;;;;;5.36;100.00;93364.72;2596417;22;19995;-78
2021/09/24 02:01:37;;;;;;;5.50;4.38;;;;;;;5.42;100.00;93371.91;2595598;22;20007;-78
2021/09/24 02:02:38;;;;;;;6.45;4.10;;;;;;;5.35;100.00;93371.88;2595460;22;20331;-79
2021/09/24 02:03:40;;;;;;;5.15;4.47;;;;;;;5.43;100.00;93368.13;2596094;22;20440;-81
2021/09/24 02:04:41;;;;;;;4.78;4.38;;;;;;;5.37;100.00;93367.00;2596269;22;20280;-75
2021/09/24 02:07:36;;;;;;;;;;;;;;;5.29;100.00;93365.47;2144385;27;20562;-76
2021/09/24 02:08:37;;;;;;;7.15;5.00;;;;;;;5.34;100.00;93361.69;2138588;27;19917;-82
2021/09/24 02:09:38;;;;;;;6.18;4.57;;;;;;;5.35;100.00;93356.00;2127536;27;20023;-76
2021/09/24 02:10:39;;;;;;;8.65;5.03;;;;;;;5.32;100.00;93358.66;2135069;27;20019;-77
2021/09/24 02:11:40;;;;;;;6.25;5.07;;;;;;;5.46;100.00;93356.78;2131209;27;20011;-79
2021/09/24 02:12:41;;;;;;;6.70;5.20;;;;;;;5.38;100.00;93359.78;2148305;27;20018;-79
2021/09/24 02:13:42;;;;;;;6.18;5.00;;;;;;;5.44;100.00;93353.72;2143499;27;20018;-78
2021/09/24 02:14:43;;;;;;;7.07;5.05;;;;;;;5.38;100.00;93357.91;2148392;27;20021;-78
2021/09/24 02:15:44;;;;;;;6.82;5.07;;;;;;;5.52;100.00;93352.59;2143210;27;20053;-79
2021/09/24 02:16:45;;;;;;;5.50;4.80;;;;;;;5.40;100.00;93355.66;2139678;27;20100;-78
2021/09/24 02:17:45;;;;;;;6.40;4.43;;;;;;;5.32;100.00;93350.72;2143150;27;20101;-78
2021/09/24 02:18:46;;;;;;;5.47;4.47;;;;;;;5.26;100.00;93348.41;2133131;27;20026;-81
2021/09/24 02:19:47;;;;;;;5.35;4.72;;;;;;;5.30;100.00;93351.06;2148503;27;20498;-79
2021/09/24 02:20:48;;;;;;;6.00;4.50;;;;;;;5.25;100.00;93354.09;2140744;27;20011;-79
2021/09/24 02:21:50;;;;;;;5.18;4.60;;;;;;;5.26;100.00;93348.41;2142369;27;20027;-77
2021/09/24 02:22:51;;;;;;;4.95;4.30;;;;;;;5.25;100.00;93351.44;2140885;27;20018;-78
2021/09/24 02:23:52;;;;;;;7.80;4.32;;;;;;;5.27;100.00;93349.19;2118659;28;20024;-79
2021/09/24 02:24:53;;;;;;;5.15;4.55;;;;;;;5.20;100.00;93354.47;2113594;28;20028;-81
2021/09/24 02:25:54;;;;;;;4.90;4.40;;;;;;;5.19;100.00;93351.06;2131782;27;20109;-79
2021/09/24 02:26:56;;;;;;;6.47;4.18;;;;;;;5.39;100.00;93356.75;2129463;27;20027;-85
2021/09/24 02:27:57;;;;;;;6.03;4.78;;;;;;;5.32;100.00;93353.34;2135411;27;20106;-76
2021/09/24 02:28:58;;;;;;;4.50;4.10;;;;;;;5.40;100.00;93358.28;2143153;27;20049;-78
2021/09/24 02:29:59;;;;;;;5.47;4.57;;;;;;;5.26;100.00;93356.34;2141199;27;20019;-78
2021/09/24 02:31:00;;;;;;;6.43;4.35;;;;;;;5.36;100.00;93354.88;2142470;27;20022;-79
2021/09/24 02:32:02;;;;;;;5.10;4.03;;;;;;;5.30;100.00;93357.13;2148210;27;20026;-80
2021/09/24 02:33:03;;;;;;;5.70;4.00;;;;;;;5.27;100.00;93368.50;2138862;27;20022;-79
2021/09/24 02:34:04;;;;;;;4.47;4.05;;;;;;;5.17;100.00;93365.81;2136292;27;20026;-81
2021/09/24 02:35:06;;;;;;;4.68;4.15;;;;;;;5.10;100.00;93371.09;2132150;27;20053;-77
2021/09/24 02:36:08;;;;;;;5.13;4.63;;;;;;;5.08;100.00;93371.44;2134965;27;20027;-76
2021/09/24 02:37:09;;;;;;;5.65;4.32;;;;;;;5.01;100.00;93374.09;2118614;28;20027;-77
2021/09/24 02:38:10;;;;;;;4.45;4.05;;;;;;;4.98;100.00;93365.00;2120099;27;20035;-79
2021/09/24 02:39:11;;;;;;;5.75;4.35;;;;;;;4.94;100.00;93364.22;2121809;27;20022;-78
2021/09/24 02:40:12;;;;;;;4.95;4.45;;;;;;;4.84;100.00;93364.94;2132841;27;20483;-81
2021/09/24 02:41:14;;;;;;;6.60;4.40;;;;;;;4.75;100.00;93357.34;2139367;27;20099;-78
2021/09/24 02:42:15;;;;;;;4.40;4.00;;;;;;;4.69;100.00;93358.81;2140747;27;20109;-79
2021/09/24 02:43:16;;;;;;;4.68;4.15;;;;;;;4.70;100.00;93362.25;2140347;27;20018;-77
2021/09/24 02:44:17;;;;;;;4.15;3.70;;;;;;;4.63;100.00;93365.59;2139262;27;20470;-76
2021/09/24 02:45:18;;;;;;;4.30;3.90;;;;;;;4.69;100.00;93358.81;2139524;27;20026;-80
2021/09/24 02:46:19;;;;;;;4.18;3.72;;;;;;;4.73;100.00;93361.47;2139030;27;20049;-80
2021/09/24 02:47:20;;;;;;;6.15;4.05;;;;;;;4.82;100.00;93355.84;2138868;27;20406;-78
2021/09/24 02:48:21;;;;;;;4.65;4.13;;;;;;;4.71;100.00;93355.81;2129280;27;20028;-78
2021/09/24 02:49:22;;;;;;;4.80;4.40;;;;;;;4.66;100.00;93359.56;2137806;27;20025;-78
2021/09/24 02:50:23;;;;;;;6.07;4.82;;;;;;;4.75;100.00;93353.94;2124560;27;20091;-76
2021/09/24 02:51:24;;;;;;;6.38;4.40;;;;;;;4.80;100.00;93358.88;2108585;27;20449;-79
2021/09/24 02:52:24;;;;;;;6.38;4.75;;;;;;;4.80;100.00;93356.22;2126916;27;20019;-78
2021/09/24 02:53:25;;;;;;;5.57;4.97;;;;;;;4.74;100.00;93357.69;2130132;27;20079;-77
2021/09/24 02:54:26;;;;;;;5.50;5.00;;;;;;;4.71;100.00;93351.28;2132349;27;20015;-82
2021/09/24 02:55:27;;;;;;;6.25;4.95;;;;;;;4.65;100.00;93357.28;2121329;28;20023;-80
2021/09/24 02:56:28;;;;;;;4.97;4.43;;;;;;;4.64;100.00;93355.78;2121508;27;20026;-77
2021/09/24 02:57:29;;;;;;;5.70;4.80;;;;;;;4.66;100.00;93354.28;2122455;27;20015;-77
2021/09/24 02:58:30;;;;;;;5.22;4.40;;;;;;;4.77;100.00;93356.97;2121576;27;20023;-80
2021/09/24 02:59:31;;;;;;;7.28;4.00;;;;;;;4.65;100.00;93359.94;2121497;28;20027;-78
2021/09/24 03:00:32;;;;;;;5.03;4.53;;;;;;;4.72;100.00;93360.72;2110201;28;20051;-77
2021/09/24 03:01:34;;;;;;;5.05;4.50;;;;;;;4.58;100.00;93362.56;2098222;28;20055;-78
2021/09/24 03:02:35;;;;;;;5.55;4.30;;;;;;;4.53;100.00;93355.75;2109391;28;20103;-80
2021/09/24 03:03:36;;;;;;;5.35;4.80;;;;;;;4.54;100.00;93357.25;2124536;27;20026;-78
2021/09/24 03:04:40;;;;;;;6.22;5.10;;;;;;;4.69;100.00;93355.41;2136368;27;20093;-78
2021/09/24 03:05:41;;;;;;;6.65;4.30;;;;;;;4.62;100.00;93364.09;2121986;28;20023;-79
2021/09/24 03:06:44;;;;;;;5.85;4.50;;;;;;;4.58;100.00;93357.28;2124210;27;20129;-81
2021/09/24 03:07:45;;;;;;;4.78;4.30;;;;;;;4.48;100.00;93359.50;2123737;27;20046;-79
2021/09/24 03:08:46;;;;;;;6.90;5.10;;;;;;;4.52;100.00;93352.34;2137200;27;20034;-80
2021/09/24 03:09:47;;;;;;;7.10;5.50;;;;;;;4.44;100.00;93356.06;2123181;27;20444;-77
2021/09/24 03:10:48;;;;;;;7.93;5.75;;;;;;;4.37;100.00;93356.03;2121546;27;20027;-77
2021/09/24 03:11:48;;;;;;;8.48;6.13;;;;;;;4.36;100.00;93362.44;2131405;27;20366;-78
2021/09/24 03:12:49;;;;;;;8.50;6.10;;;;;;;4.45;100.00;93356.81;2130592;27;20038;-79
2021/09/24 03:13:50;;;;;;;10.02;6.65;;;;;;;4.44;100.00;93361.38;2123577;27;20472;-79
2021/09/24 03:14:51;;;;;;;9.70;6.18;;;;;;;4.40;100.00;93357.19;2121368;27;20031;-79
2021/09/24 03:15:54;;;;;;;7.13;5.55;;;;;;;4.40;100.00;93354.53;2130175;27;20019;-78
2021/09/24 03:16:55;;;;;;;6.85;5.80;;;;;;;4.33;100.00;93360.53;2123957;27;20376;-77
2021/09/24 03:17:56;;;;;;;8.85;6.07;;;;;;;4.24;100.00;93358.22;2104251;28;20028;-78
2021/09/24 03:18:57;;;;;;;9.77;6.85;;;;;;;4.26;100.00;93357.88;2115228;27;20022;-81
2021/09/24 03:19:58;;;;;;;9.02;6.05;;;;;;;4.38;100.00;93352.25;2130808;27;20029;-77
2021/09/24 03:20:59;;;;;;;8.38;5.35;;;;;;;4.38;100.00;93354.88;2122911;27;20111;-79
2021/09/24 03:22:00;;;;;;;6.80;5.50;;;;;;;4.44;100.00;93357.97;2126219;27;20024;-78
2021/09/24 03:23:01;;;;;;;8.57;6.43;;;;;;;4.45;100.00;93354.19;2125655;27;20057;-78
2021/09/24 03:24:02;;;;;;;10.10;5.75;;;;;;;4.40;100.00;93354.53;2132204;27;20033;-77
2021/09/24 03:25:04;;;;;;;7.57;5.32;;;;;;;4.43;100.00;93356.41;2128279;27;20375;-79
2021/09/24 03:26:05;;;;;;;6.38;5.10;;;;;;;4.35;100.00;93355.66;2124226;27;20038;-81
2021/09/24 03:27:07;;;;;;;6.43;5.75;;;;;;;4.35;100.00;93355.66;2114907;28;20095;-76
2021/09/24 03:28:10;;;;;;;7.85;4.80;;;;;;;4.37;100.00;93360.56;2105636;28;20024;-79
2021/09/24 03:29:11;;;;;;;7.65;4.63;;;;;;;4.46;100.00;93351.16;2108055;27;20073;-80
2021/09/24 03:30:13;;;;;;;8.73;5.13;;;;;;;4.28;100.00;93355.59;2107212;28;20028;-78
2021/09/24 03:31:16;;;;;;;4.80;4.28;;;;;;;4.28;100.00;93360.88;2107796;27;20436;-78
2021/09/24 03:32:19;;;;;;;5.30;4.80;;;;;;;4.14;100.00;93358.16;2124227;27;20030;-81
2021/09/24 03:33:20;;;;;;;5.32;4.68;;;;;;;4.09;100.00;93359.28;2121781;27;20019;-80
2021/09/24 03:34:21;;;;;;;5.95;4.53;;;;;;;4.20;100.00;93359.31;2124202;27;20033;-81
2021/09/24 03:35:22;;;;;;;5.20;4.65;;;;;;;4.32;100.00;93363.56;2125952;27;20054;-81
2021/09/24 03:36:23;;;;;;;5.70;4.88;;;;;;;4.20;100.00;93362.72;2108067;28;20038;-78
2021/09/24 03:37:24;;;;;;;5.88;5.28;;;;;;;4.20;100.00;93367.25;2107446;28;20012;-80
2021/09/24 03:38:25;;;;;;;5.72;4.90;;;;;;;4.24;100.00;93366.16;2117370;27;20024;-79
2021/09/24 03:39:26;;;;;;;5.82;4.72;;;;;;;4.17;100.00;93362.69;2120049;27;20119;-79
2021/09/24 03:40:27;;;;;;;6.90;4.70;;;;;;;4.19;100.00;93363.84;2127478;27;20027;-79
2021/09/24 03:41:28;;;;;;;6.10;4.78;;;;;;;4.24;100.00;93368.03;2115611;28;20063;-80
2021/09/24 03:42:29;;;;;;;9.02;5.70;;;;;;;4.27;100.00;93370.72;2113759;28;20516;-78
2021/09/24 03:43:30;;;;;;;7.40;5.07;;;;;;;4.08;100.00;93364.91;2116129;27;20024;-78
2021/09/24 03:44:31;;;;;;;9.43;4.90;;;;;;;4.15;100.00;93370.25;2107026;28;20043;-78
2021/09/24 03:45:32;;;;;;;8.75;5.32;;;;;;;4.24;100.00;93368.03;2112068;28;20387;-76
2021/09/24 03:46:33;;;;;;;5.70;4.90;;;;;;;4.11;100.00;93372.13;2119929;27;20073;-79
2021/09/24 03:47:34;;;;;;;7.38;4.90;;;;;;;4.10;100.00;93365.31;2124541;27;20510;-77
2021/09/24 03:48:35;;;;;;;5.28;4.55;;;;;;;4.08;100.00;93376.25;2116128;27;20028;-80
2021/09/24 03:49:36;;;;;;;7.07;4.88;;;;;;;4.19;100.00;93366.50;2107174;28;20074;-78
2021/09/24 03:50:37;;;;;;;5.05;4.55;;;;;;;4.11;100.00;93372.88;2119066;27;20098;-79
2021/09/24 03:51:38;;;;;;;6.53;4.50;;;;;;;4.08;100.00;93368.31;2127197;27;20041;-79
2021/09/24 03:52:39;;;;;;;8.88;4.57;;;;;;;4.10;100.00;93370.59;2129540;27;20071;-79
2021/09/24 03:53:40;;;;;;;5.53;4.40;;;;;;;4.10;100.00;93365.31;2123312;27;20027;-78
2021/09/24 03:54:41;;;;;;;6.18;4.30;;;;;;;3.98;100.00;93367.13;2109901;28;20035;-79
2021/09/24 03:55:42;;;;;;;4.72;4.22;;;;;;;3.96;100.00;93364.09;2105426;27;20031;-81
2021/09/24 03:56:43;;;;;;;5.07;4.10;;;;;;;3.93;100.00;93370.09;2112006;27;20016;-80
2021/09/24 03:57:44;;;;;;;4.60;3.67;;;;;;;4.03;100.00;93361.47;2124047;27;20534;-81
2021/09/24 03:58:45;;;;;;;4.75;4.20;;;;;;;4.00;100.00;93361.47;2118797;27;20140;-81
2021/09/24 03:59:46;;;;;;;4.68;4.15;;;;;;;4.04;100.00;93355.09;2117733;27;20019;-80
2021/09/24 04:00:48;;;;;;;4.45;4.05;;;;;;;4.07;100.00;93358.09;2118706;27;20429;-79
2021/09/24 04:01:49;;;;;;;5.18;4.00;;;;;;;4.00;100.00;93359.59;2121587;27;20050;-82
2021/09/24 04:02:50;;;;;;;7.05;4.30;;;;;;;4.03;100.00;93361.47;2122206;27;20456;-79
2021/09/24 04:03:51;;;;;;;4.50;3.65;;;;;;;4.04;100.00;93356.97;2104490;28;20039;-78
2021/09/24 04:04:52;;;;;;;4.70;4.05;;;;;;;3.99;100.00;93357.28;2105699;28;20074;-78
2021/09/24 04:05:52;;;;;;;5.07;3.95;;;;;;;3.90;100.00;93364.78;2119367;27;20026;-80
2021/09/24 04:06:53;;;;;;;4.10;3.40;;;;;;;3.96;100.00;93358.81;2115613;27;20015;-81
2021/09/24 04:07:54;;;;;;;4.45;3.75;;;;;;;3.97;100.00;93362.19;2117100;27;20022;-79
2021/09/24 04:08:55;;;;;;;5.35;4.18;;;;;;;3.94;100.00;93355.75;2113177;27;20111;-77
2021/09/24 04:09:56;;;;;;;5.38;3.95;;;;;;;4.03;100.00;93361.47;2111951;28;20024;-76
2021/09/24 04:10:57;;;;;;;4.25;3.80;;;;;;;3.99;100.00;93358.03;2119616;27;20544;-79
2021/09/24 04:11:58;;;;;;;5.70;4.18;;;;;;;3.92;100.00;93351.97;2115132;27;20035;-79
2021/09/24 04:12:59;;;;;;;4.80;4.10;;;;;;;3.91;100.00;93359.16;2116162;27;20024;-77
2021/09/24 04:14:00;;;;;;;5.57;4.05;;;;;;;3.98;100.00;93358.41;2112766;27;20387;-79
2021/09/24 04:15:02;;;;;;;4.57;3.83;;;;;;;4.00;100.00;93354.28;2110319;27;20460;-78
2021/09/24 04:16:04;;;;;;;4.20;3.80;;;;;;;3.93;100.00;93359.53;2122729;27;20019;-77
2021/09/24 04:17:04;;;;;;;6.22;3.97;;;;;;;3.97;100.00;93362.97;2114942;27;20064;-81
2021/09/24 04:18:05;;;;;;;4.75;4.13;;;;;;;3.85;100.00;93360.59;2108546;28;20134;-79
2021/09/24 04:19:06;;;;;;;5.03;4.00;;;;;;;3.89;100.00;93357.97;2115032;27;20027;-78
2021/09/24 04:20:08;;;;;;;7.63;4.40;;;;;;;3.84;100.00;93368.91;2114343;27;20094;-79
2021/09/24 04:21:09;;;;;;;4.35;3.92;;;;;;;3.86;100.00;93362.09;2096565;28;20017;-81
2021/09/24 04:22:10;;;;;;;5.85;4.60;;;;;;;3.93;100.00;93369.34;2102868;28;20031;-78
2021/09/24 04:23:11;;;;;;;4.63;4.20;;;;;;;3.92;100.00;93368.59;2123130;27;20046;-83
2021/09/24 04:24:12;;;;;;;6.43;4.18;;;;;;;3.86;100.00;93364.75;2119702;27;20046;-78
2021/09/24 04:25:13;;;;;;;5.40;4.72;;;;;;;3.81;100.00;93367.75;2121777;27;20024;-79
2021/09/24 04:26:14;;;;;;;7.63;4.40;;;;;;;3.84;100.00;93366.25;2122845;27;20094;-80
2021/09/24 04:27:16;;;;;;;5.47;4.18;;;;;;;3.85;100.00;93367.78;2118307;27;20051;-80
2021/09/24 04:28:17;;;;;;;8.05;5.07;;;;;;;3.84;100.00;93361.72;2102189;28;20055;-80
2021/09/24 04:29:18;;;;;;;6.90;5.30;;;;;;;3.92;100.00;93362.53;2106806;28;20012;-81
2021/09/24 04:30:19;;;;;;;5.07;4.50;;;;;;;3.88;100.00;93364.41;2111487;27;20091;-78
2021/09/24 04:31:20;;;;;;;7.05;4.65;;;;;;;3.89;100.00;93355.34;2116619;27;20019;-80
2021/09/24 04:32:21;;;;;;;8.45;5.30;;;;;;;3.87;100.00;93368.94;2116858;27;20978;-80
2021/09/24 04:33:22;;;;;;;5.70;5.07;;;;;;;3.97;100.00;93362.19;2113362;27;20502;-78
2021/09/24 04:34:23;;;;;;;8.45;4.32;;;;;;;3.91;100.00;93367.09;2102672;28;20020;-78
2021/09/24 04:35:24;;;;;;;6.00;4.78;;;;;;;3.87;100.00;93368.94;2106062;28;20023;-78
2021/09/24 04:36:26;;;;;;;6.32;4.70;;;;;;;3.91;100.00;93361.78;2123265;27;20486;-78
2021/09/24 04:37:27;;;;;;;5.97;5.10;;;;;;;3.92;100.00;93360.66;2125191;27;20483;-77
2021/09/24 04:38:28;;;;;;;7.68;5.03;;;;;;;3.88;100.00;93359.88;2115497;27;20091;-81
2021/09/24 04:39:29;;;;;;;8.40;4.80;;;;;;;3.81;100.00;93359.81;2113682;27;20514;-79
2021/09/24 04:40:31;;;;;;;7.93;5.63;;;;;;;3.79;100.00;93367.34;2125148;27;20059;-80
2021/09/24 04:41:32;;;;;;;7.03;4.82;;;;;;;3.74;100.00;93365.06;2114169;27;20019;-80
2021/09/24 04:42:33;;;;;;;7.63;5.13;;;;;;;3.75;100.00;93361.28;2103931;28;20020;-80
2021/09/24 04:43:34;;;;;;;8.23;4.93;;;;;;;3.74;100.00;93359.78;2116405;27;20480;-78
2021/09/24 04:44:35;;;;;;;6.75;5.20;;;;;;;3.71;100.00;93363.13;2122695;27;20030;-81
2021/09/24 04:45:36;;;;;;;6.35;5.18;;;;;;;3.78;100.00;93363.19;2122208;27;20019;-77
2021/09/24 04:46:37;;;;;;;6.00;5.13;;;;;;;3.68;100.00;93361.22;2110696;28;20531;-80
2021/09/24 04:47:38;;;;;;;6.68;5.20;;;;;;;3.68;100.00;93361.22;2114551;28;20902;-77
2021/09/24 04:48:39;;;;;;;7.43;5.43;;;;;;;3.70;100.00;93369.56;2111494;27;20078;-80
2021/09/24 04:49:40;;;;;;;7.40;5.63;;;;;;;3.76;100.00;93363.56;2114999;27;20015;-82